^^
Station Historical Data
Daily Summary for December 18, 2017 Units:  Both    English   Metric
« Previous Day
Next Day »
Daily Weekly Monthly Yearly Custom
  High: Low: Average:
Temperature: TemperatureF °F /  -17.8 °C 65.1 °F /  18.4 °C 77.2 °F /  25.1 °C
Dew Point: DewpointF °F /  -17.8 °C 37.6 °F /  3.1 °C 44.9 °F /  7.2 °C
Humidity: Humidity% 17% 34%
Wind Speed: WindSpeedMPHmph /  0km/h - 1.4mph /  2.3km/h
Wind Gust: WindSpeedGustMPHmph /  0km/h - -
Wind- - SSW
Pressure: PressureIn in /  0 hPa 29.54 in /  1000.2 hPa -
Precipitation: 0.05 in /  1.27 mm    
Historical Graphs
 
 
Tabular Data for December 18, 2017
Time Temperature Dew Point Pressure Wind Wind Speed Wind Gust Humidity Rainfall Rate (Hourly) solar Conditions
TemperatureF °F /  -17.8 °C DewpointF °F /  -17.8 °C PressureInin /  0hPa Calm     Humidity% HourlyPrecipInin /  0mm SolarRadiationWatts/m^2 W/m2 Conditions
00:01 71.8 °F /  22.1 °C 43.3 °F /  6.3 °C 29.72in /  1006.3hPa Calm     36% 0.00in /  0mm 0.0 W/m2
00:06 71.8 °F /  22.1 °C 41.2 °F /  5.1 °C 29.71in /  1006hPa Calm     33% 0.00in /  0mm 0.0 W/m2
00:11 71.8 °F /  22.1 °C 38.7 °F /  3.7 °C 29.71in /  1006hPa Calm     30% 0.00in /  0mm 0.0 W/m2
00:16 71.6 °F /  22 °C 37.6 °F /  3.1 °C 29.71in /  1006hPa Calm     29% 0.00in /  0mm 0.0 W/m2
00:22 71.4 °F /  21.9 °C 37.6 °F /  3.1 °C 29.71in /  1006hPa Calm     29% 0.00in /  0mm 0.0 W/m2
00:27 71.4 °F /  21.9 °C 37.6 °F /  3.1 °C 29.71in /  1006hPa Calm     29% 0.00in /  0mm 0.0 W/m2
00:32 71.2 °F /  21.8 °C 38.3 °F /  3.5 °C 29.71in /  1006hPa Calm     30% 0.00in /  0mm 0.0 W/m2
00:33 71.2 °F /  21.8 °C 38.3 °F /  3.5 °C 29.71in /  1006hPa Calm     30% 0.00in /  0mm 0.0 W/m2
00:38 71.1 °F /  21.7 °C 38.8 °F /  3.8 °C 29.70in /  1005.6hPa East 0.9mph /  1.4km/h 1.0mph /  1.6km/h 31% 0.00in /  0mm 0.0 W/m2
00:43 71.1 °F /  21.7 °C 42.8 °F /  6 °C 29.70in /  1005.6hPa Calm   1.0mph /  1.6km/h 36% 0.00in /  0mm 0.0 W/m2
00:48 70.9 °F /  21.6 °C 44.8 °F /  7.1 °C 29.70in /  1005.6hPa Calm   1.0mph /  1.6km/h 39% 0.00in /  0mm 0.0 W/m2
00:51 70.9 °F /  21.6 °C 46.0 °F /  7.8 °C 29.70in /  1005.6hPa Calm   1.0mph /  1.6km/h 41% 0.00in /  0mm 0.0 W/m2
00:57 70.7 °F /  21.5 °C 47.7 °F /  8.7 °C 29.70in /  1005.6hPa Calm     44% 0.00in /  0mm 0.0 W/m2
01:03 70.5 °F /  21.4 °C 48.2 °F /  9 °C 29.69in /  1005.3hPa Calm   1.0mph /  1.6km/h 45% 0.00in /  0mm 0.0 W/m2
01:08 70.3 °F /  21.3 °C 48.6 °F /  9.2 °C 29.69in /  1005.3hPa Calm     46% 0.00in /  0mm 0.0 W/m2
01:13 70.2 °F /  21.2 °C 47.8 °F /  8.8 °C 29.69in /  1005.3hPa Calm     45% 0.00in /  0mm 0.0 W/m2
01:19 70.0 °F /  21.1 °C 48.2 °F /  9 °C 29.69in /  1005.3hPa Calm   1.0mph /  1.6km/h 46% 0.00in /  0mm 0.0 W/m2
01:24 69.8 °F /  21 °C 48.0 °F /  8.9 °C 29.69in /  1005.3hPa Calm     46% 0.00in /  0mm 0.0 W/m2
01:28 69.6 °F /  20.9 °C 48.6 °F /  9.2 °C 29.68in /  1005hPa Calm     47% 0.00in /  0mm 0.0 W/m2
01:34 69.4 °F /  20.8 °C 47.8 °F /  8.8 °C 29.68in /  1005hPa Calm     46% 0.00in /  0mm 0.0 W/m2
01:39 69.3 °F /  20.7 °C 47.7 °F /  8.7 °C 29.68in /  1005hPa Calm     46% 0.00in /  0mm 0.0 W/m2
01:44 69.1 °F /  20.6 °C 46.8 °F /  8.2 °C 29.68in /  1005hPa Calm     45% 0.00in /  0mm 0.0 W/m2
01:50 68.7 °F /  20.4 °C 47.7 °F /  8.7 °C 29.68in /  1005hPa Calm     47% 0.00in /  0mm 0.0 W/m2
01:55 68.5 °F /  20.3 °C 47.5 °F /  8.6 °C 29.67in /  1004.6hPa Calm     47% 0.00in /  0mm 0.0 W/m2
01:57 68.4 °F /  20.2 °C 46.2 °F /  7.9 °C 29.67in /  1004.6hPa Calm     45% 0.00in /  0mm 0.0 W/m2
01:59 68.4 °F /  20.2 °C 46.2 °F /  7.9 °C 29.67in /  1004.6hPa Calm     45% 0.00in /  0mm 0.0 W/m2
02:04 68.2 °F /  20.1 °C 47.1 °F /  8.4 °C 29.67in /  1004.6hPa Calm     47% 0.00in /  0mm 0.0 W/m2
02:08 68.2 °F /  20.1 °C 46.6 °F /  8.1 °C 29.67in /  1004.6hPa Calm   1.0mph /  1.6km/h 46% 0.00in /  0mm 0.0 W/m2
02:15 67.8 °F /  19.9 °C 46.2 °F /  7.9 °C 29.67in /  1004.6hPa Calm   1.0mph /  1.6km/h 46% 0.00in /  0mm 0.0 W/m2
02:20 67.6 °F /  19.8 °C 45.5 °F /  7.5 °C 29.67in /  1004.6hPa Calm     45% 0.00in /  0mm 0.0 W/m2
02:25 67.5 °F /  19.7 °C 45.3 °F /  7.4 °C 29.67in /  1004.6hPa Calm     45% 0.00in /  0mm 0.0 W/m2
02:30 67.5 °F /  19.7 °C 44.8 °F /  7.1 °C 29.67in /  1004.6hPa Calm     44% 0.00in /  0mm 0.0 W/m2
02:34 67.5 °F /  19.7 °C 44.8 °F /  7.1 °C 29.67in /  1004.6hPa Calm     44% 0.00in /  0mm 0.0 W/m2
02:40 67.6 °F /  19.8 °C 45.0 °F /  7.2 °C 29.67in /  1004.6hPa Calm     44% 0.00in /  0mm 0.0 W/m2
02:45 67.8 °F /  19.9 °C 44.4 °F /  6.9 °C 29.67in /  1004.6hPa Calm     43% 0.00in /  0mm 0.0 W/m2
02:46 67.8 °F /  19.9 °C 44.4 °F /  6.9 °C 29.67in /  1004.6hPa Calm     43% 0.00in /  0mm 0.0 W/m2
02:48 67.8 °F /  19.9 °C 44.4 °F /  6.9 °C 29.67in /  1004.6hPa Calm   2.0mph /  3.2km/h 43% 0.00in /  0mm 0.0 W/m2
02:54 68.2 °F /  20.1 °C 44.2 °F /  6.8 °C 29.67in /  1004.6hPa Calm     42% 0.00in /  0mm 0.0 W/m2
02:57 68.2 °F /  20.1 °C 44.2 °F /  6.8 °C 29.67in /  1004.6hPa Calm   1.0mph /  1.6km/h 42% 0.00in /  0mm 0.0 W/m2
03:02 68.4 °F /  20.2 °C 44.4 °F /  6.9 °C 29.67in /  1004.6hPa Calm   1.0mph /  1.6km/h 42% 0.00in /  0mm 0.0 W/m2
03:07 68.5 °F /  20.3 °C 44.6 °F /  7 °C 29.67in /  1004.6hPa East 0.9mph /  1.4km/h 1.0mph /  1.6km/h 42% 0.00in /  0mm 0.0 W/m2
03:13 68.5 °F /  20.3 °C 44.6 °F /  7 °C 29.67in /  1004.6hPa Calm   1.0mph /  1.6km/h 42% 0.00in /  0mm 0.0 W/m2
03:18 68.7 °F /  20.4 °C 44.8 °F /  7.1 °C 29.67in /  1004.6hPa Calm   1.0mph /  1.6km/h 42% 0.00in /  0mm 0.0 W/m2
03:23 68.7 °F /  20.4 °C 44.8 °F /  7.1 °C 29.67in /  1004.6hPa East 0.9mph /  1.4km/h 1.0mph /  1.6km/h 42% 0.00in /  0mm 0.0 W/m2
03:24 68.7 °F /  20.4 °C 44.8 °F /  7.1 °C 29.67in /  1004.6hPa Calm   1.0mph /  1.6km/h 42% 0.00in /  0mm 0.0 W/m2
03:30 68.9 °F /  20.5 °C 44.2 °F /  6.8 °C 29.67in /  1004.6hPa Calm   1.0mph /  1.6km/h 41% 0.00in /  0mm 0.0 W/m2
03:35 68.9 °F /  20.5 °C 44.2 °F /  6.8 °C 29.67in /  1004.6hPa Calm     41% 0.00in /  0mm 0.0 W/m2
03:40 68.9 °F /  20.5 °C 44.2 °F /  6.8 °C 29.67in /  1004.6hPa Calm     41% 0.00in /  0mm 0.0 W/m2
03:45 68.9 °F /  20.5 °C 43.5 °F /  6.4 °C 29.67in /  1004.6hPa Calm     40% 0.00in /  0mm 0.0 W/m2
03:51 68.9 °F /  20.5 °C 43.5 °F /  6.4 °C 29.67in /  1004.6hPa Calm     40% 0.00in /  0mm 0.0 W/m2
03:56 68.9 °F /  20.5 °C 44.2 °F /  6.8 °C 29.67in /  1004.6hPa Calm     41% 0.00in /  0mm 0.0 W/m2
03:58 68.7 °F /  20.4 °C 44.1 °F /  6.7 °C 29.67in /  1004.6hPa Calm   1.0mph /  1.6km/h 41% 0.00in /  0mm 0.0 W/m2
04:03 68.7 °F /  20.4 °C 42.8 °F /  6 °C 29.67in /  1004.6hPa Calm     39% 0.00in /  0mm 0.0 W/m2
04:08 68.5 °F /  20.3 °C 42.6 °F /  5.9 °C 29.67in /  1004.6hPa Calm     39% 0.00in /  0mm 0.0 W/m2
04:10 68.5 °F /  20.3 °C 43.9 °F /  6.6 °C 29.68in /  1005hPa Calm   1.0mph /  1.6km/h 41% 0.00in /  0mm 0.0 W/m2
04:15 68.4 °F /  20.2 °C 43.7 °F /  6.5 °C 29.68in /  1005hPa Calm     41% 0.00in /  0mm 0.0 W/m2
04:19 68.4 °F /  20.2 °C 44.4 °F /  6.9 °C 29.68in /  1005hPa Calm   1.0mph /  1.6km/h 42% 0.00in /  0mm 0.0 W/m2
04:24 68.2 °F /  20.1 °C 44.8 °F /  7.1 °C 29.68in /  1005hPa NNW 0.9mph /  1.4km/h 1.0mph /  1.6km/h 43% 0.00in /  0mm 0.0 W/m2
04:29 68.2 °F /  20.1 °C 44.8 °F /  7.1 °C 29.68in /  1005hPa NW 2.0mph /  3.2km/h 4.0mph /  6.4km/h 43% 0.00in /  0mm 0.0 W/m2
04:32 68.2 °F /  20.1 °C 44.8 °F /  7.1 °C 29.68in /  1005hPa NW 0.9mph /  1.4km/h 4.0mph /  6.4km/h 43% 0.00in /  0mm 0.0 W/m2
04:37 68.4 °F /  20.2 °C 43.2 °F /  6.2 °C 29.68in /  1005hPa NW 2.0mph /  3.2km/h 5.0mph /  8km/h 40% 0.00in /  0mm 0.0 W/m2
04:39 68.4 °F /  20.2 °C 41.7 °F /  5.4 °C 29.68in /  1005hPa NNW 2.9mph /  4.7km/h 9.0mph /  14.5km/h 38% 0.00in /  0mm 0.0 W/m2
04:44 68.4 °F /  20.2 °C 41.0 °F /  5 °C 29.68in /  1005hPa NNW 2.9mph /  4.7km/h 8.0mph /  12.9km/h 37% 0.00in /  0mm 0.0 W/m2
04:49 68.2 °F /  20.1 °C 40.3 °F /  4.6 °C 29.69in /  1005.3hPa Calm   2.0mph /  3.2km/h 36% 0.00in /  0mm 0.0 W/m2
04:54 68.2 °F /  20.1 °C 40.3 °F /  4.6 °C 29.69in /  1005.3hPa Calm     36% 0.00in /  0mm 0.0 W/m2
04:59 68.2 °F /  20.1 °C 40.3 °F /  4.6 °C 29.70in /  1005.6hPa Calm     36% 0.00in /  0mm 0.0 W/m2
05:04 68.2 °F /  20.1 °C 41.0 °F /  5 °C 29.69in /  1005.3hPa Calm   2.0mph /  3.2km/h 37% 0.00in /  0mm 0.0 W/m2
05:09 68.0 °F /  20 °C 40.8 °F /  4.9 °C 29.69in /  1005.3hPa Calm   1.0mph /  1.6km/h 37% 0.00in /  0mm 0.0 W/m2
05:13 68.0 °F /  20 °C 41.4 °F /  5.2 °C 29.70in /  1005.6hPa Calm     38% 0.00in /  0mm 0.0 W/m2
05:20 67.8 °F /  19.9 °C 41.4 °F /  5.2 °C 29.70in /  1005.6hPa Calm   1.0mph /  1.6km/h 38% 0.00in /  0mm 0.0 W/m2
05:26 67.6 °F /  19.8 °C 41.7 °F /  5.4 °C 29.70in /  1005.6hPa Calm     39% 0.00in /  0mm 0.0 W/m2
05:31 67.6 °F /  19.8 °C 42.4 °F /  5.8 °C 29.70in /  1005.6hPa Calm     40% 0.00in /  0mm 0.0 W/m2
05:36 67.5 °F /  19.7 °C 43.0 °F /  6.1 °C 29.70in /  1005.6hPa Calm     41% 0.00in /  0mm 0.0 W/m2
05:42 67.3 °F /  19.6 °C 43.3 °F /  6.3 °C 29.70in /  1005.6hPa Calm     42% 0.00in /  0mm 0.0 W/m2
05:47 66.9 °F /  19.4 °C 43.7 °F /  6.5 °C 29.71in /  1006hPa Calm     43% 0.00in /  0mm 0.0 W/m2
05:49 66.9 °F /  19.4 °C 43.2 °F /  6.2 °C 29.71in /  1006hPa Calm     42% 0.00in /  0mm 0.0 W/m2
05:54 66.6 °F /  19.2 °C 42.8 °F /  6 °C 29.71in /  1006hPa Calm     42% 0.00in /  0mm 0.0 W/m2
05:59 66.4 °F /  19.1 °C 43.2 °F /  6.2 °C 29.71in /  1006hPa Calm     43% 0.00in /  0mm 0.0 W/m2
06:04 66.2 °F /  19 °C 43.0 °F /  6.1 °C 29.71in /  1006hPa Calm     43% 0.00in /  0mm 0.0 W/m2
06:09 65.8 °F /  18.8 °C 41.5 °F /  5.3 °C 29.72in /  1006.3hPa Calm     41% 0.00in /  0mm 0.0 W/m2
06:15 65.8 °F /  18.8 °C 42.1 °F /  5.6 °C 29.72in /  1006.3hPa Calm     42% 0.00in /  0mm 5.0 W/m2
06:20 65.7 °F /  18.7 °C 41.9 °F /  5.5 °C 29.72in /  1006.3hPa Calm     42% 0.00in /  0mm 11.0 W/m2
06:25 65.7 °F /  18.7 °C 41.9 °F /  5.5 °C 29.72in /  1006.3hPa Calm     42% 0.00in /  0mm 16.0 W/m2
06:30 65.5 °F /  18.6 °C 41.7 °F /  5.4 °C 29.72in /  1006.3hPa Calm     42% 0.00in /  0mm 30.0 W/m2
06:35 65.5 °F /  18.6 °C 42.4 °F /  5.8 °C 29.72in /  1006.3hPa Calm     43% 0.00in /  0mm 35.0 W/m2
06:41 65.5 °F /  18.6 °C 43.0 °F /  6.1 °C 29.72in /  1006.3hPa SSE 0.9mph /  1.4km/h 2.0mph /  3.2km/h 44% 0.00in /  0mm 40.0 W/m2
06:46 65.3 °F /  18.5 °C 42.8 °F /  6 °C 29.72in /  1006.3hPa SSE 0.9mph /  1.4km/h 2.0mph /  3.2km/h 44% 0.00in /  0mm 35.0 W/m2
06:50 65.1 °F /  18.4 °C 41.5 °F /  5.3 °C 29.72in /  1006.3hPa SSE 0.9mph /  1.4km/h 4.0mph /  6.4km/h 42% 0.00in /  0mm 42.0 W/m2
06:55 65.1 °F /  18.4 °C 42.1 °F /  5.6 °C 29.72in /  1006.3hPa SSE 0.9mph /  1.4km/h 3.0mph /  4.8km/h 43% 0.00in /  0mm 26.0 W/m2
07:00 65.3 °F /  18.5 °C 42.3 °F /  5.7 °C 29.72in /  1006.3hPa SSE 2.0mph /  3.2km/h 2.0mph /  3.2km/h 43% 0.00in /  0mm 35.0 W/m2
07:05 65.5 °F /  18.6 °C 41.7 °F /  5.4 °C 29.72in /  1006.3hPa SSE 2.0mph /  3.2km/h 4.0mph /  6.4km/h 42% 0.00in /  0mm 98.0 W/m2
07:09 65.7 °F /  18.7 °C 41.4 °F /  5.2 °C 29.73in /  1006.7hPa SSE 0.9mph /  1.4km/h 3.0mph /  4.8km/h 41% 0.00in /  0mm 102.0 W/m2
07:14 66.0 °F /  18.9 °C 41.0 °F /  5 °C 29.73in /  1006.7hPa SE 0.9mph /  1.4km/h 3.0mph /  4.8km/h 40% 0.00in /  0mm 97.0 W/m2
07:20 66.6 °F /  19.2 °C 41.5 °F /  5.3 °C 29.73in /  1006.7hPa SE 0.9mph /  1.4km/h 3.0mph /  4.8km/h 40% 0.00in /  0mm 81.0 W/m2
07:25 66.9 °F /  19.4 °C 41.9 °F /  5.5 °C 29.73in /  1006.7hPa Calm   2.0mph /  3.2km/h 40% 0.00in /  0mm 60.0 W/m2
07:28 67.1 °F /  19.5 °C 41.9 °F /  5.5 °C 29.73in /  1006.7hPa Calm     40% 0.00in /  0mm 60.0 W/m2
07:33 67.5 °F /  19.7 °C 42.3 °F /  5.7 °C 29.73in /  1006.7hPa Calm   1.0mph /  1.6km/h 40% 0.00in /  0mm 67.0 W/m2
07:34 67.5 °F /  19.7 °C 42.3 °F /  5.7 °C 29.73in /  1006.7hPa Calm   1.0mph /  1.6km/h 40% 0.00in /  0mm 69.0 W/m2
07:39 67.6 °F /  19.8 °C 42.4 °F /  5.8 °C 29.73in /  1006.7hPa Calm     40% 0.00in /  0mm 84.0 W/m2
07:44 67.8 °F /  19.9 °C 42.6 °F /  5.9 °C 29.72in /  1006.3hPa Calm     40% 0.00in /  0mm 109.0 W/m2
07:45 67.6 °F /  19.8 °C 41.7 °F /  5.4 °C 29.72in /  1006.3hPa Calm     39% 0.00in /  0mm 86.0 W/m2
07:50 68.0 °F /  20 °C 43.3 °F /  6.3 °C 29.73in /  1006.7hPa Calm     41% 0.00in /  0mm 142.0 W/m2
07:52 68.2 °F /  20.1 °C 43.0 °F /  6.1 °C 29.73in /  1006.7hPa Calm     40% 0.00in /  0mm 149.0 W/m2
07:58 68.4 °F /  20.2 °C 44.4 °F /  6.9 °C 29.73in /  1006.7hPa Calm     42% 0.00in /  0mm 153.0 W/m2
08:03 68.5 °F /  20.3 °C 44.6 °F /  7 °C 29.72in /  1006.3hPa Calm   2.0mph /  3.2km/h 42% 0.00in /  0mm 213.0 W/m2
08:08 69.1 °F /  20.6 °C 44.4 °F /  6.9 °C 29.73in /  1006.7hPa Calm   3.0mph /  4.8km/h 41% 0.00in /  0mm 186.0 W/m2
08:13 69.4 °F /  20.8 °C 44.1 °F /  6.7 °C 29.73in /  1006.7hPa Calm   1.0mph /  1.6km/h 40% 0.00in /  0mm 248.0 W/m2
08:17 70.0 °F /  21.1 °C 45.1 °F /  7.3 °C 29.73in /  1006.7hPa Calm   1.0mph /  1.6km/h 41% 0.00in /  0mm 499.0 W/m2
08:22 70.2 °F /  21.2 °C 44.8 °F /  7.1 °C 29.73in /  1006.7hPa Calm     40% 0.00in /  0mm 120.0 W/m2
08:28 70.3 °F /  21.3 °C 45.0 °F /  7.2 °C 29.73in /  1006.7hPa Calm   2.0mph /  3.2km/h 40% 0.00in /  0mm 116.0 W/m2
08:33 70.3 °F /  21.3 °C 45.0 °F /  7.2 °C 29.73in /  1006.7hPa WSW 0.9mph /  1.4km/h 2.0mph /  3.2km/h 40% 0.00in /  0mm 265.0 W/m2
08:34 70.3 °F /  21.3 °C 45.5 °F /  7.5 °C 29.73in /  1006.7hPa SSW 2.0mph /  3.2km/h 2.0mph /  3.2km/h 41% 0.00in /  0mm 148.0 W/m2
08:39 70.3 °F /  21.3 °C 45.0 °F /  7.2 °C 29.73in /  1006.7hPa Calm   1.0mph /  1.6km/h 40% 0.00in /  0mm 155.0 W/m2
08:44 70.3 °F /  21.3 °C 45.0 °F /  7.2 °C 29.73in /  1006.7hPa Calm     40% 0.00in /  0mm 251.0 W/m2
08:45 70.3 °F /  21.3 °C 45.0 °F /  7.2 °C 29.73in /  1006.7hPa Calm     40% 0.00in /  0mm 251.0 W/m2
08:50 70.9 °F /  21.6 °C 45.3 °F /  7.4 °C 29.73in /  1006.7hPa SW 2.0mph /  3.2km/h 3.0mph /  4.8km/h 40% 0.00in /  0mm 610.0 W/m2
08:51 70.9 °F /  21.6 °C 45.3 °F /  7.4 °C 29.73in /  1006.7hPa SW 0.9mph /  1.4km/h 3.0mph /  4.8km/h 40% 0.00in /  0mm 408.0 W/m2
08:56 71.2 °F /  21.8 °C 45.0 °F /  7.2 °C 29.72in /  1006.3hPa Calm   2.0mph /  3.2km/h 39% 0.00in /  0mm 329.0 W/m2
09:00 71.4 °F /  21.9 °C 44.4 °F /  6.9 °C 29.73in /  1006.7hPa Calm     38% 0.00in /  0mm 664.0 W/m2
09:05 72.0 °F /  22.2 °C 45.0 °F /  7.2 °C 29.73in /  1006.7hPa SSW 2.0mph /  3.2km/h 3.0mph /  4.8km/h 38% 0.00in /  0mm 837.0 W/m2
09:10 72.9 °F /  22.7 °C 45.1 °F /  7.3 °C 29.73in /  1006.7hPa Calm   1.0mph /  1.6km/h 37% 0.00in /  0mm 302.0 W/m2
09:15 73.2 °F /  22.9 °C 44.6 °F /  7 °C 29.73in /  1006.7hPa Calm   2.0mph /  3.2km/h 36% 0.00in /  0mm 227.0 W/m2
09:20 73.6 °F /  23.1 °C 44.2 °F /  6.8 °C 29.73in /  1006.7hPa SW 0.9mph /  1.4km/h 3.0mph /  4.8km/h 35% 0.00in /  0mm 195.0 W/m2
09:22 73.8 °F /  23.2 °C 44.4 °F /  6.9 °C 29.73in /  1006.7hPa Calm   3.0mph /  4.8km/h 35% 0.00in /  0mm 195.0 W/m2
09:27 73.9 °F /  23.3 °C 43.9 °F /  6.6 °C 29.73in /  1006.7hPa Calm   3.0mph /  4.8km/h 34% 0.00in /  0mm 466.0 W/m2
09:32 74.5 °F /  23.6 °C 44.2 °F /  6.8 °C 29.73in /  1006.7hPa Calm   3.0mph /  4.8km/h 34% 0.00in /  0mm 427.0 W/m2
09:37 75.0 °F /  23.9 °C 44.8 °F /  7.1 °C 29.72in /  1006.3hPa WSW 2.0mph /  3.2km/h 4.0mph /  6.4km/h 34% 0.00in /  0mm 789.0 W/m2
09:43 75.4 °F /  24.1 °C 43.5 °F /  6.4 °C 29.73in /  1006.7hPa NNW 0.9mph /  1.4km/h 1.0mph /  1.6km/h 32% 0.00in /  0mm 186.0 W/m2
09:46 75.4 °F /  24.1 °C 43.5 °F /  6.4 °C 29.72in /  1006.3hPa Calm   2.0mph /  3.2km/h 32% 0.00in /  0mm 436.0 W/m2
09:51 75.6 °F /  24.2 °C 42.8 °F /  6 °C 29.72in /  1006.3hPa Calm   1.0mph /  1.6km/h 31% 0.00in /  0mm 842.0 W/m2
09:57 76.6 °F /  24.8 °C 42.8 °F /  6 °C 29.72in /  1006.3hPa Calm   3.0mph /  4.8km/h 30% 0.00in /  0mm 849.0 W/m2
09:58 76.8 °F /  24.9 °C 43.9 °F /  6.6 °C 29.72in /  1006.3hPa NE 0.9mph /  1.4km/h 1.0mph /  1.6km/h 31% 0.00in /  0mm 851.0 W/m2
10:03 77.7 °F /  25.4 °C 43.0 °F /  6.1 °C 29.72in /  1006.3hPa SW 0.9mph /  1.4km/h 4.0mph /  6.4km/h 29% 0.00in /  0mm 837.0 W/m2
10:05 78.1 °F /  25.6 °C 43.2 °F /  6.2 °C 29.72in /  1006.3hPa West 2.0mph /  3.2km/h 3.0mph /  4.8km/h 29% 0.00in /  0mm 851.0 W/m2
10:10 78.6 °F /  25.9 °C 41.9 °F /  5.5 °C 29.72in /  1006.3hPa Calm   4.0mph /  6.4km/h 27% 0.00in /  0mm 863.0 W/m2
10:15 79.3 °F /  26.3 °C 41.5 °F /  5.3 °C 29.72in /  1006.3hPa Calm   2.0mph /  3.2km/h 26% 0.00in /  0mm 875.0 W/m2
10:21 79.7 °F /  26.5 °C 41.7 °F /  5.4 °C 29.71in /  1006hPa WNW 0.9mph /  1.4km/h 5.0mph /  8km/h 26% 0.00in /  0mm 895.0 W/m2
10:26 80.4 °F /  26.9 °C 43.3 °F /  6.3 °C 29.71in /  1006hPa West 2.0mph /  3.2km/h 5.0mph /  8km/h 27% 0.00in /  0mm 905.0 W/m2
10:31 81.0 °F /  27.2 °C 42.8 °F /  6 °C 29.71in /  1006hPa Calm   3.0mph /  4.8km/h 26% 0.00in /  0mm 911.0 W/m2
10:36 81.1 °F /  27.3 °C 43.0 °F /  6.1 °C 29.71in /  1006hPa East 0.9mph /  1.4km/h 3.0mph /  4.8km/h 26% 0.00in /  0mm 921.0 W/m2
10:41 81.1 °F /  27.3 °C 43.0 °F /  6.1 °C 29.71in /  1006hPa WSW 2.9mph /  4.7km/h 5.0mph /  8km/h 26% 0.00in /  0mm 946.0 W/m2
10:46 81.0 °F /  27.2 °C 42.8 °F /  6 °C 29.70in /  1005.6hPa Calm   3.0mph /  4.8km/h 26% 0.00in /  0mm 979.0 W/m2
10:52 81.9 °F /  27.7 °C 43.7 °F /  6.5 °C 29.70in /  1005.6hPa Calm   5.0mph /  8km/h 26% 0.00in /  0mm 995.0 W/m2
10:58 82.0 °F /  27.8 °C 43.7 °F /  6.5 °C 29.70in /  1005.6hPa Calm   2.0mph /  3.2km/h 26% 0.00in /  0mm 991.0 W/m2
11:03 81.9 °F /  27.7 °C 45.5 °F /  7.5 °C 29.70in /  1005.6hPa WNW 2.0mph /  3.2km/h 3.0mph /  4.8km/h 28% 0.00in /  0mm 990.0 W/m2
11:08 82.6 °F /  28.1 °C 45.1 °F /  7.3 °C 29.70in /  1005.6hPa West 0.9mph /  1.4km/h 2.0mph /  3.2km/h 27% 0.00in /  0mm 988.0 W/m2
11:10 82.8 °F /  28.2 °C 44.4 °F /  6.9 °C 29.70in /  1005.6hPa ENE 2.0mph /  3.2km/h 5.0mph /  8km/h 26% 0.00in /  0mm 997.0 W/m2
11:15 83.1 °F /  28.4 °C 44.6 °F /  7 °C 29.70in /  1005.6hPa Calm   2.0mph /  3.2km/h 26% 0.00in /  0mm 1004.0 W/m2
11:20 83.8 °F /  28.8 °C 45.3 °F /  7.4 °C 29.70in /  1005.6hPa Calm   4.0mph /  6.4km/h 26% 0.00in /  0mm 997.0 W/m2
11:25 84.7 °F /  29.3 °C 45.0 °F /  7.2 °C 29.70in /  1005.6hPa NW 2.9mph /  4.7km/h 5.0mph /  8km/h 25% 0.00in /  0mm 1004.0 W/m2
11:30 85.3 °F /  29.6 °C 45.5 °F /  7.5 °C 29.70in /  1005.6hPa Calm   3.0mph /  4.8km/h 25% 0.00in /  0mm 1005.0 W/m2
11:33 85.5 °F /  29.7 °C 45.7 °F /  7.6 °C 29.70in /  1005.6hPa NNW 2.0mph /  3.2km/h 4.0mph /  6.4km/h 25% 0.00in /  0mm 1013.0 W/m2
11:39 86.2 °F /  30.1 °C 45.1 °F /  7.3 °C 29.70in /  1005.6hPa NW 6.0mph /  9.7km/h 7.0mph /  11.3km/h 24% 0.00in /  0mm 1023.0 W/m2
11:44 86.4 °F /  30.2 °C 45.3 °F /  7.4 °C 29.69in /  1005.3hPa Calm   2.0mph /  3.2km/h 24% 0.00in /  0mm 1027.0 W/m2
11:45 86.4 °F /  30.2 °C 45.3 °F /  7.4 °C 29.70in /  1005.6hPa Calm   3.0mph /  4.8km/h 24% 0.00in /  0mm 1027.0 W/m2
11:50 86.4 °F /  30.2 °C 45.3 °F /  7.4 °C 29.69in /  1005.3hPa SW 2.0mph /  3.2km/h 8.0mph /  12.9km/h 24% 0.00in /  0mm 1034.0 W/m2
11:55 86.2 °F /  30.1 °C 44.1 °F /  6.7 °C 29.69in /  1005.3hPa North 4.0mph /  6.4km/h 6.0mph /  9.7km/h 23% 0.00in /  0mm 1044.0 W/m2
11:58 86.4 °F /  30.2 °C 43.0 °F /  6.1 °C 29.69in /  1005.3hPa North 4.9mph /  7.9km/h 6.0mph /  9.7km/h 22% 0.00in /  0mm 1044.0 W/m2
12:03 86.7 °F /  30.4 °C 42.1 °F /  5.6 °C 29.69in /  1005.3hPa NW 2.0mph /  3.2km/h 7.0mph /  11.3km/h 21% 0.00in /  0mm 1037.0 W/m2
12:08 87.3 °F /  30.7 °C 43.7 °F /  6.5 °C 29.69in /  1005.3hPa NNW 2.9mph /  4.7km/h 10.0mph /  16.1km/h 22% 0.00in /  0mm 1046.0 W/m2
12:12 87.4 °F /  30.8 °C 41.4 °F /  5.2 °C 29.69in /  1005.3hPa West 0.9mph /  1.4km/h 6.0mph /  9.7km/h 20% 0.00in /  0mm 1051.0 W/m2
12:17 87.6 °F /  30.9 °C 42.8 °F /  6 °C 29.69in /  1005.3hPa WNW 0.9mph /  1.4km/h 4.0mph /  6.4km/h 21% 0.00in /  0mm 1048.0 W/m2
12:22 88.2 °F /  31.2 °C 40.6 °F /  4.8 °C 29.68in /  1005hPa NNW 2.0mph /  3.2km/h 9.0mph /  14.5km/h 19% 0.00in /  0mm 1051.0 W/m2
12:27 88.5 °F /  31.4 °C 41.0 °F /  5 °C 29.68in /  1005hPa WSW 2.0mph /  3.2km/h 5.0mph /  8km/h 19% 0.00in /  0mm 1058.0 W/m2
12:33 88.5 °F /  31.4 °C 41.0 °F /  5 °C 29.68in /  1005hPa SE 2.9mph /  4.7km/h 7.0mph /  11.3km/h 19% 0.00in /  0mm 1062.0 W/m2
12:39 88.9 °F /  31.6 °C 41.4 °F /  5.2 °C 29.68in /  1005hPa Calm   4.0mph /  6.4km/h 19% 0.00in /  0mm 1055.0 W/m2
12:44 89.4 °F /  31.9 °C 40.3 °F /  4.6 °C 29.67in /  1004.6hPa Calm   7.0mph /  11.3km/h 18% 0.00in /  0mm 1042.0 W/m2
12:47 89.8 °F /  32.1 °C 40.6 °F /  4.8 °C 29.67in /  1004.6hPa Calm   5.0mph /  8km/h 18% 0.00in /  0mm 1044.0 W/m2
12:52 89.8 °F /  32.1 °C 42.1 °F /  5.6 °C 29.67in /  1004.6hPa West 4.9mph /  7.9km/h 9.0mph /  14.5km/h 19% 0.00in /  0mm 1042.0 W/m2
12:53 89.8 °F /  32.1 °C 42.1 °F /  5.6 °C 29.67in /  1004.6hPa SE 2.0mph /  3.2km/h 7.0mph /  11.3km/h 19% 0.00in /  0mm 1046.0 W/m2
12:58 89.2 °F /  31.8 °C 41.5 °F /  5.3 °C 29.67in /  1004.6hPa WNW 2.0mph /  3.2km/h 5.0mph /  8km/h 19% 0.00in /  0mm 1048.0 W/m2
13:01 89.1 °F /  31.7 °C 42.8 °F /  6 °C 29.67in /  1004.6hPa SSW 4.0mph /  6.4km/h 7.0mph /  11.3km/h 20% 0.00in /  0mm 1055.0 W/m2
13:06 89.1 °F /  31.7 °C 41.4 °F /  5.2 °C 29.67in /  1004.6hPa NE 0.9mph /  1.4km/h 8.0mph /  12.9km/h 19% 0.00in /  0mm 1046.0 W/m2
13:11 89.4 °F /  31.9 °C 41.7 °F /  5.4 °C 29.66in /  1004.3hPa NW 2.9mph /  4.7km/h 5.0mph /  8km/h 19% 0.00in /  0mm 1046.0 W/m2
13:16 90.0 °F /  32.2 °C 42.3 °F /  5.7 °C 29.66in /  1004.3hPa North 4.9mph /  7.9km/h 7.0mph /  11.3km/h 19% 0.00in /  0mm 1049.0 W/m2
13:19 90.1 °F /  32.3 °C 42.3 °F /  5.7 °C 29.66in /  1004.3hPa NNW 2.0mph /  3.2km/h 4.0mph /  6.4km/h 19% 0.00in /  0mm 1049.0 W/m2
13:25 90.9 °F /  32.7 °C 43.0 °F /  6.1 °C 29.66in /  1004.3hPa WNW 2.0mph /  3.2km/h 7.0mph /  11.3km/h 19% 0.00in /  0mm 1049.0 W/m2
13:30 90.3 °F /  32.4 °C 42.4 °F /  5.8 °C 29.65in /  1003.9hPa WSW 4.9mph /  7.9km/h 6.0mph /  9.7km/h 19% 0.00in /  0mm 1048.0 W/m2
13:35 89.8 °F /  32.1 °C 42.1 °F /  5.6 °C 29.65in /  1003.9hPa South 4.0mph /  6.4km/h 9.0mph /  14.5km/h 19% 0.00in /  0mm 1046.0 W/m2
13:40 89.4 °F /  31.9 °C 43.0 °F /  6.1 °C 29.65in /  1003.9hPa WNW 2.9mph /  4.7km/h 5.0mph /  8km/h 20% 0.00in /  0mm 1051.0 W/m2
13:46 90.1 °F /  32.3 °C 43.7 °F /  6.5 °C 29.65in /  1003.9hPa West 2.9mph /  4.7km/h 5.0mph /  8km/h 20% 0.00in /  0mm 1053.0 W/m2
13:51 90.7 °F /  32.6 °C 44.1 °F /  6.7 °C 29.65in /  1003.9hPa WNW 2.9mph /  4.7km/h 6.0mph /  9.7km/h 20% 0.00in /  0mm 1049.0 W/m2
13:56 90.9 °F /  32.7 °C 43.0 °F /  6.1 °C 29.64in /  1003.6hPa WSW 2.0mph /  3.2km/h 5.0mph /  8km/h 19% 0.00in /  0mm 1042.0 W/m2
14:01 90.3 °F /  32.4 °C 42.4 °F /  5.8 °C 29.64in /  1003.6hPa SE 2.0mph /  3.2km/h 3.0mph /  4.8km/h 19% 0.00in /  0mm 1025.0 W/m2
14:06 90.3 °F /  32.4 °C 42.4 °F /  5.8 °C 29.63in /  1003.3hPa Calm   3.0mph /  4.8km/h 19% 0.00in /  0mm 1023.0 W/m2
14:10 90.5 °F /  32.5 °C 42.6 °F /  5.9 °C 29.63in /  1003.3hPa NW 0.9mph /  1.4km/h 8.0mph /  12.9km/h 19% 0.00in /  0mm 1021.0 W/m2
14:15 91.2 °F /  32.9 °C 41.7 °F /  5.4 °C 29.63in /  1003.3hPa NE 2.9mph /  4.7km/h 11.0mph /  17.7km/h 18% 0.00in /  0mm 1023.0 W/m2
14:20 91.4 °F /  33 °C 43.3 °F /  6.3 °C 29.62in /  1002.9hPa NNE 6.0mph /  9.7km/h 11.0mph /  17.7km/h 19% 0.00in /  0mm 1023.0 W/m2
14:26 91.9 °F /  33.3 °C 42.4 °F /  5.8 °C 29.62in /  1002.9hPa East 2.9mph /  4.7km/h 8.0mph /  12.9km/h 18% 0.00in /  0mm 1032.0 W/m2
14:31 92.1 °F /  33.4 °C 43.9 °F /  6.6 °C 29.62in /  1002.9hPa NNE 2.9mph /  4.7km/h 7.0mph /  11.3km/h 19% 0.00in /  0mm 1021.0 W/m2
14:36 92.5 °F /  33.6 °C 42.8 °F /  6 °C 29.61in /  1002.6hPa Calm   5.0mph /  8km/h 18% 0.00in /  0mm 1027.0 W/m2
14:38 92.7 °F /  33.7 °C 44.4 °F /  6.9 °C 29.61in /  1002.6hPa WSW 4.0mph /  6.4km/h 8.0mph /  12.9km/h 19% 0.00in /  0mm 1027.0 W/m2
14:44 93.0 °F /  33.9 °C 43.3 °F /  6.3 °C 29.60in /  1002.3hPa WSW 2.9mph /  4.7km/h 4.0mph /  6.4km/h 18% 0.00in /  0mm 1027.0 W/m2
14:48 92.8 °F /  33.8 °C 43.2 °F /  6.2 °C 29.60in /  1002.3hPa WSW 4.0mph /  6.4km/h 7.0mph /  11.3km/h 18% 0.00in /  0mm 1051.0 W/m2
14:54 91.8 °F /  33.2 °C 42.3 °F /  5.7 °C 29.60in /  1002.3hPa NNW 2.9mph /  4.7km/h 7.0mph /  11.3km/h 18% 0.00in /  0mm 394.0 W/m2
14:59 91.6 °F /  33.1 °C 43.5 °F /  6.4 °C 29.59in /  1001.9hPa WSW 4.0mph /  6.4km/h 8.0mph /  12.9km/h 19% 0.00in /  0mm 1018.0 W/m2
15:04 91.9 °F /  33.3 °C 43.7 °F /  6.5 °C 29.59in /  1001.9hPa WNW 0.9mph /  1.4km/h 5.0mph /  8km/h 19% 0.00in /  0mm 225.0 W/m2
15:09 91.9 °F /  33.3 °C 43.7 °F /  6.5 °C 29.59in /  1001.9hPa Calm   2.0mph /  3.2km/h 19% 0.00in /  0mm 466.0 W/m2
15:14 91.9 °F /  33.3 °C 42.4 °F /  5.8 °C 29.59in /  1001.9hPa ENE 2.0mph /  3.2km/h 4.0mph /  6.4km/h 18% 0.00in /  0mm 109.0 W/m2
15:19 91.8 °F /  33.2 °C 43.7 °F /  6.5 °C 29.59in /  1001.9hPa Calm   3.0mph /  4.8km/h 19% 0.00in /  0mm 149.0 W/m2
15:24 91.8 °F /  33.2 °C 43.7 °F /  6.5 °C 29.58in /  1001.6hPa Calm   1.0mph /  1.6km/h 19% 0.00in /  0mm 916.0 W/m2
15:29 92.1 °F /  33.4 °C 43.9 °F /  6.6 °C 29.58in /  1001.6hPa WNW 0.9mph /  1.4km/h 5.0mph /  8km/h 19% 0.00in /  0mm 889.0 W/m2
15:31 92.5 °F /  33.6 °C 44.2 °F /  6.8 °C 29.59in /  1001.9hPa NNW 2.9mph /  4.7km/h 6.0mph /  9.7km/h 19% 0.00in /  0mm 879.0 W/m2
15:36 93.0 °F /  33.9 °C 43.3 °F /  6.3 °C 29.58in /  1001.6hPa NNE 4.0mph /  6.4km/h 6.0mph /  9.7km/h 18% 0.00in /  0mm 875.0 W/m2
15:41 93.4 °F /  34.1 °C 43.5 °F /  6.4 °C 29.58in /  1001.6hPa NNW 2.0mph /  3.2km/h 4.0mph /  6.4km/h 18% 0.00in /  0mm 216.0 W/m2
15:46 93.4 °F /  34.1 °C 43.5 °F /  6.4 °C 29.57in /  1001.2hPa WSW 8.1mph /  13km/h 9.0mph /  14.5km/h 18% 0.00in /  0mm 633.0 W/m2
15:52 92.8 °F /  33.8 °C 43.2 °F /  6.2 °C 29.57in /  1001.2hPa WSW 4.9mph /  7.9km/h 7.0mph /  11.3km/h 18% 0.00in /  0mm 851.0 W/m2
15:54 92.7 °F /  33.7 °C 43.0 °F /  6.1 °C 29.57in /  1001.2hPa WSW 4.9mph /  7.9km/h 8.0mph /  12.9km/h 18% 0.00in /  0mm 824.0 W/m2
15:59 91.4 °F /  33 °C 43.3 °F /  6.3 °C 29.57in /  1001.2hPa WSW 4.9mph /  7.9km/h 7.0mph /  11.3km/h 19% 0.00in /  0mm 146.0 W/m2
16:00 91.0 °F /  32.8 °C 43.0 °F /  6.1 °C 29.57in /  1001.2hPa WSW 0.9mph /  1.4km/h 7.0mph /  11.3km/h 19% 0.00in /  0mm 193.0 W/m2
16:05 90.3 °F /  32.4 °C 42.4 °F /  5.8 °C 29.57in /  1001.2hPa WSW 2.0mph /  3.2km/h 3.0mph /  4.8km/h 19% 0.00in /  0mm 151.0 W/m2
16:07 90.1 °F /  32.3 °C 43.7 °F /  6.5 °C 29.57in /  1001.2hPa SW 2.0mph /  3.2km/h 3.0mph /  4.8km/h 20% 0.00in /  0mm 193.0 W/m2
16:12 90.3 °F /  32.4 °C 43.9 °F /  6.6 °C 29.57in /  1001.2hPa SW 2.0mph /  3.2km/h 5.0mph /  8km/h 20% 0.00in /  0mm 213.0 W/m2
16:17 91.0 °F /  32.8 °C 43.0 °F /  6.1 °C 29.56in /  1000.9hPa WNW 4.0mph /  6.4km/h 6.0mph /  9.7km/h 19% 0.00in /  0mm 737.0 W/m2
16:22 91.9 °F /  33.3 °C 43.7 °F /  6.5 °C 29.56in /  1000.9hPa West 2.0mph /  3.2km/h 3.0mph /  4.8km/h 19% 0.00in /  0mm 745.0 W/m2
16:27 92.1 °F /  33.4 °C 42.4 °F /  5.8 °C 29.56in /  1000.9hPa SW 0.9mph /  1.4km/h 2.0mph /  3.2km/h 18% 0.00in /  0mm 188.0 W/m2
16:32 91.4 °F /  33 °C 41.9 °F /  5.5 °C 29.56in /  1000.9hPa Calm   3.0mph /  4.8km/h 18% 0.00in /  0mm 130.0 W/m2
16:35 91.0 °F /  32.8 °C 43.0 °F /  6.1 °C 29.55in /  1000.6hPa WSW 0.9mph /  1.4km/h 2.0mph /  3.2km/h 19% 0.00in /  0mm 172.0 W/m2
16:41 91.0 °F /  32.8 °C 43.0 °F /  6.1 °C 29.55in /  1000.6hPa Calm   5.0mph /  8km/h 19% 0.00in /  0mm 211.0 W/m2
16:45 91.0 °F /  32.8 °C 43.0 °F /  6.1 °C 29.55in /  1000.6hPa Calm   5.0mph /  8km/h 19% 0.00in /  0mm 299.0 W/m2
16:51 91.0 °F /  32.8 °C 43.0 °F /  6.1 °C 29.55in /  1000.6hPa WNW 0.9mph /  1.4km/h 3.0mph /  4.8km/h 19% 0.00in /  0mm 155.0 W/m2
16:56 91.2 °F /  32.9 °C 43.2 °F /  6.2 °C 29.55in /  1000.6hPa West 0.9mph /  1.4km/h 5.0mph /  8km/h 19% 0.00in /  0mm 186.0 W/m2
17:01 91.2 °F /  32.9 °C 43.2 °F /  6.2 °C 29.54in /  1000.2hPa Calm   7.0mph /  11.3km/h 19% 0.00in /  0mm 615.0 W/m2
17:06 91.2 °F /  32.9 °C 43.2 °F /  6.2 °C 29.54in /  1000.2hPa Calm   2.0mph /  3.2km/h 19% 0.00in /  0mm 128.0 W/m2
17:10 91.0 °F /  32.8 °C 41.7 °F /  5.4 °C 29.54in /  1000.2hPa Calm   3.0mph /  4.8km/h 18% 0.00in /  0mm 121.0 W/m2
17:16 90.3 °F /  32.4 °C 42.4 °F /  5.8 °C 29.54in /  1000.2hPa NW 2.9mph /  4.7km/h 4.0mph /  6.4km/h 19% 0.00in /  0mm 141.0 W/m2
17:21 90.1 °F /  32.3 °C 42.3 °F /  5.7 °C 29.54in /  1000.2hPa Calm   2.0mph /  3.2km/h 19% 0.00in /  0mm 153.0 W/m2
17:27 90.0 °F /  32.2 °C 42.3 °F /  5.7 °C 29.54in /  1000.2hPa Calm   2.0mph /  3.2km/h 19% 0.00in /  0mm 121.0 W/m2
17:33 90.0 °F /  32.2 °C 42.3 °F /  5.7 °C 29.54in /  1000.2hPa Calm   1.0mph /  1.6km/h 19% 0.00in /  0mm 141.0 W/m2
17:38 90.0 °F /  32.2 °C 42.3 °F /  5.7 °C 29.54in /  1000.2hPa NW 0.9mph /  1.4km/h 3.0mph /  4.8km/h 19% 0.00in /  0mm 343.0 W/m2
17:42 90.1 °F /  32.3 °C 42.3 °F /  5.7 °C 29.54in /  1000.2hPa Calm   4.0mph /  6.4km/h 19% 0.00in /  0mm 468.0 W/m2
17:47 90.7 °F /  32.6 °C 42.8 °F /  6 °C 29.54in /  1000.2hPa North 2.9mph /  4.7km/h 5.0mph /  8km/h 19% 0.00in /  0mm 153.0 W/m2
17:52 90.7 °F /  32.6 °C 42.8 °F /  6 °C 29.54in /  1000.2hPa Calm   1.0mph /  1.6km/h 19% 0.00in /  0mm 200.0 W/m2
17:57 90.3 °F /  32.4 °C 42.4 °F /  5.8 °C 29.54in /  1000.2hPa NNE 2.0mph /  3.2km/h 3.0mph /  4.8km/h 19% 0.00in /  0mm 424.0 W/m2
18:02 90.3 °F /  32.4 °C 42.4 °F /  5.8 °C 29.54in /  1000.2hPa WSW 8.9mph /  14.3km/h 12.0mph /  19.3km/h 19% 0.00in /  0mm 397.0 W/m2
18:05 90.3 °F /  32.4 °C 42.4 °F /  5.8 °C 29.54in /  1000.2hPa SW 0.9mph /  1.4km/h 6.0mph /  9.7km/h 19% 0.00in /  0mm 378.0 W/m2
18:11 90.9 °F /  32.7 °C 41.5 °F /  5.3 °C 29.54in /  1000.2hPa WSW 0.9mph /  1.4km/h 9.0mph /  14.5km/h 18% 0.00in /  0mm 336.0 W/m2
18:17 90.9 °F /  32.7 °C 41.5 °F /  5.3 °C 29.54in /  1000.2hPa West 2.9mph /  4.7km/h 7.0mph /  11.3km/h 18% 0.00in /  0mm 116.0 W/m2
18:22 90.3 °F /  32.4 °C 41.0 °F /  5 °C 29.54in /  1000.2hPa SSW 2.9mph /  4.7km/h 7.0mph /  11.3km/h 18% 0.00in /  0mm 98.0 W/m2
18:27 89.8 °F /  32.1 °C 40.6 °F /  4.8 °C 29.54in /  1000.2hPa WSW 2.0mph /  3.2km/h 2.0mph /  3.2km/h 18% 0.00in /  0mm 88.0 W/m2
18:32 89.1 °F /  31.7 °C 41.4 °F /  5.2 °C 29.54in /  1000.2hPa WSW 4.0mph /  6.4km/h 5.0mph /  8km/h 19% 0.00in /  0mm 86.0 W/m2
18:37 88.5 °F /  31.4 °C 41.0 °F /  5 °C 29.54in /  1000.2hPa WSW 4.0mph /  6.4km/h 7.0mph /  11.3km/h 19% 0.00in /  0mm 125.0 W/m2
18:42 88.3 °F /  31.3 °C 40.8 °F /  4.9 °C 29.54in /  1000.2hPa SW 2.0mph /  3.2km/h 7.0mph /  11.3km/h 19% 0.00in /  0mm 88.0 W/m2
18:47 88.3 °F /  31.3 °C 40.8 °F /  4.9 °C 29.54in /  1000.2hPa Calm   2.0mph /  3.2km/h 19% 0.00in /  0mm 79.0 W/m2
18:52 88.5 °F /  31.4 °C 41.0 °F /  5 °C 29.54in /  1000.2hPa Calm   5.0mph /  8km/h 19% 0.00in /  0mm 67.0 W/m2
18:57 88.3 °F /  31.3 °C 40.8 °F /  4.9 °C 29.55in /  1000.6hPa West 0.9mph /  1.4km/h 7.0mph /  11.3km/h 19% 0.00in /  0mm 53.0 W/m2
19:03 88.2 °F /  31.2 °C 37.9 °F /  3.3 °C 29.55in /  1000.6hPa West 2.0mph /  3.2km/h 7.0mph /  11.3km/h 17% 0.00in /  0mm 46.0 W/m2
19:04 88.2 °F /  31.2 °C 37.9 °F /  3.3 °C 29.55in /  1000.6hPa WSW 0.9mph /  1.4km/h 7.0mph /  11.3km/h 17% 0.00in /  0mm 42.0 W/m2
19:09 88.0 °F /  31.1 °C 39.2 °F /  4 °C 29.55in /  1000.6hPa SW 4.0mph /  6.4km/h 8.0mph /  12.9km/h 18% 0.00in /  0mm 37.0 W/m2
19:14 87.8 °F /  31 °C 41.7 °F /  5.4 °C 29.56in /  1000.9hPa NNW 6.0mph /  9.7km/h 12.0mph /  19.3km/h 20% 0.00in /  0mm 32.0 W/m2
19:19 87.3 °F /  30.7 °C 49.3 °F /  9.6 °C 29.57in /  1001.2hPa SSW 0.9mph /  1.4km/h 4.0mph /  6.4km/h 27% 0.00in /  0mm 21.0 W/m2
19:24 86.4 °F /  30.2 °C 49.5 °F /  9.7 °C 29.56in /  1000.9hPa Calm   2.0mph /  3.2km/h 28% 0.00in /  0mm 18.0 W/m2
19:29 85.8 °F /  29.9 °C 49.8 °F /  9.9 °C 29.57in /  1001.2hPa SW 0.9mph /  1.4km/h 1.0mph /  1.6km/h 29% 0.00in /  0mm 16.0 W/m2
19:34 85.5 °F /  29.7 °C 49.6 °F /  9.8 °C 29.57in /  1001.2hPa Calm   8.0mph /  12.9km/h 29% 0.00in /  0mm 12.0 W/m2
19:39 85.3 °F /  29.6 °C 50.4 °F /  10.2 °C 29.57in /  1001.2hPa Calm   3.0mph /  4.8km/h 30% 0.00in /  0mm 5.0 W/m2
19:45 84.9 °F /  29.4 °C 50.0 °F /  10 °C 29.57in /  1001.2hPa ESE 2.0mph /  3.2km/h 9.0mph /  14.5km/h 30% 0.00in /  0mm 0.0 W/m2
19:50 84.6 °F /  29.2 °C 49.6 °F /  9.8 °C 29.57in /  1001.2hPa SE 2.9mph /  4.7km/h 7.0mph /  11.3km/h 30% 0.00in /  0mm 0.0 W/m2
19:55 84.2 °F /  29 °C 49.5 °F /  9.7 °C 29.58in /  1001.6hPa Calm   4.0mph /  6.4km/h 30% 0.00in /  0mm 0.0 W/m2
20:01 83.7 °F /  28.7 °C 49.8 °F /  9.9 °C 29.57in /  1001.2hPa ESE 2.0mph /  3.2km/h 9.0mph /  14.5km/h 31% 0.00in /  0mm 0.0 W/m2
20:06 83.3 °F /  28.5 °C 50.4 °F /  10.2 °C 29.58in /  1001.6hPa Calm   7.0mph /  11.3km/h 32% 0.00in /  0mm 0.0 W/m2
20:11 82.6 °F /  28.1 °C 53.6 °F /  12 °C 29.58in /  1001.6hPa SSE 2.9mph /  4.7km/h 7.0mph /  11.3km/h 37% 0.00in /  0mm 0.0 W/m2
20:13 82.2 °F /  27.9 °C 53.4 °F /  11.9 °C 29.58in /  1001.6hPa SSE 2.0mph /  3.2km/h 4.0mph /  6.4km/h 37% 0.00in /  0mm 0.0 W/m2
20:15 82.0 °F /  27.8 °C 54.7 °F /  12.6 °C 29.58in /  1001.6hPa SE 2.9mph /  4.7km/h 5.0mph /  8km/h 39% 0.00in /  0mm 0.0 W/m2
20:18 81.7 °F /  27.6 °C 55.0 °F /  12.8 °C 29.59in /  1001.9hPa SSE 2.0mph /  3.2km/h 6.0mph /  9.7km/h 40% 0.00in /  0mm 0.0 W/m2
20:23 81.0 °F /  27.2 °C 57.0 °F /  13.9 °C 29.59in /  1001.9hPa SE 2.9mph /  4.7km/h 6.0mph /  9.7km/h 44% 0.00in /  0mm 0.0 W/m2
20:30 79.9 °F /  26.6 °C 56.7 °F /  13.7 °C 29.59in /  1001.9hPa SSW 2.0mph /  3.2km/h 5.0mph /  8km/h 45% 0.00in /  0mm 0.0 W/m2
20:35 79.3 °F /  26.3 °C 44.2 °F /  6.8 °C 29.59in /  1001.9hPa SSE 4.0mph /  6.4km/h 6.0mph /  9.7km/h 29% 0.00in /  0mm 0.0 W/m2
20:40 78.6 °F /  25.9 °C 45.5 °F /  7.5 °C 29.59in /  1001.9hPa SSW 2.9mph /  4.7km/h 11.0mph /  17.7km/h 31% 0.00in /  0mm 0.0 W/m2
20:45 78.1 °F /  25.6 °C 46.6 °F /  8.1 °C 29.61in /  1002.6hPa SSE 8.9mph /  14.3km/h 11.0mph /  17.7km/h 33% 0.00in /  0mm 0.0 W/m2
20:46 77.9 °F /  25.5 °C 46.4 °F /  8 °C 29.61in /  1002.6hPa SE 4.9mph /  7.9km/h 11.0mph /  17.7km/h 33% 0.00in /  0mm 0.0 W/m2
20:51 76.8 °F /  24.9 °C 50.0 °F /  10 °C 29.62in /  1002.9hPa South 2.9mph /  4.7km/h 12.0mph /  19.3km/h 39% 0.00in /  0mm 0.0 W/m2
20:57 75.0 °F /  23.9 °C 49.6 °F /  9.8 °C 29.62in /  1002.9hPa SE 4.0mph /  6.4km/h 15.0mph /  24.1km/h 41% 0.00in /  0mm 0.0 W/m2
21:02 74.1 °F /  23.4 °C 52.0 °F /  11.1 °C 29.62in /  1002.9hPa ESE 6.9mph /  11.1km/h 14.0mph /  22.5km/h 46% 0.00in /  0mm 0.0 W/m2
21:04 73.6 °F /  23.1 °C 54.9 °F /  12.7 °C 29.63in /  1003.3hPa ESE 15.0mph /  24.1km/h 15.0mph /  24.1km/h 52% 0.00in /  0mm 0.0 W/m2
21:09 71.1 °F /  21.7 °C 57.4 °F /  14.1 °C 29.63in /  1003.3hPa SSE 10.1mph /  16.3km/h 17.0mph /  27.4km/h 62% 0.03in /  0.76mm 0.0 W/m2
21:15 68.7 °F /  20.4 °C 56.5 °F /  13.6 °C 29.62in /  1002.9hPa SE 4.0mph /  6.4km/h 11.0mph /  17.7km/h 65% 0.04in /  1.02mm 0.0 W/m2
21:20 67.6 °F /  19.8 °C 57.9 °F /  14.4 °C 29.62in /  1002.9hPa ESE 6.0mph /  9.7km/h 10.0mph /  16.1km/h 71% 0.05in /  1.27mm 0.0 W/m2
21:25 66.9 °F /  19.4 °C 57.2 °F /  14 °C 29.63in /  1003.3hPa East 2.0mph /  3.2km/h 12.0mph /  19.3km/h 71% 0.05in /  1.27mm 0.0 W/m2
21:30 66.6 °F /  19.2 °C 55.2 °F /  12.9 °C 29.63in /  1003.3hPa ESE 8.1mph /  13km/h 13.0mph /  20.9km/h 67% 0.05in /  1.27mm 0.0 W/m2
21:32 66.6 °F /  19.2 °C 54.5 °F /  12.5 °C 29.63in /  1003.3hPa SE 8.9mph /  14.3km/h 10.0mph /  16.1km/h 65% 0.05in /  1.27mm 0.0 W/m2
21:37 66.7 °F /  19.3 °C 54.7 °F /  12.6 °C 29.63in /  1003.3hPa ESE 2.9mph /  4.7km/h 11.0mph /  17.7km/h 65% 0.05in /  1.27mm 0.0 W/m2
21:42 67.1 °F /  19.5 °C 53.6 °F /  12 °C 29.64in /  1003.6hPa East 6.0mph /  9.7km/h 7.0mph /  11.3km/h 62% 0.05in /  1.27mm 0.0 W/m2
21:47 67.5 °F /  19.7 °C 54.5 °F /  12.5 °C 29.63in /  1003.3hPa East 4.9mph /  7.9km/h 8.0mph /  12.9km/h 63% 0.05in /  1.27mm 0.0 W/m2
21:48 67.5 °F /  19.7 °C 53.6 °F /  12 °C 29.63in /  1003.3hPa SE 0.9mph /  1.4km/h 8.0mph /  12.9km/h 61% 0.05in /  1.27mm 0.0 W/m2
21:53 67.6 °F /  19.8 °C 53.8 °F /  12.1 °C 29.63in /  1003.3hPa NE 0.9mph /  1.4km/h 3.0mph /  4.8km/h 61% 0.05in /  1.27mm 0.0 W/m2
21:55 67.6 °F /  19.8 °C 54.1 °F /  12.3 °C 29.63in /  1003.3hPa ENE 2.0mph /  3.2km/h 4.0mph /  6.4km/h 62% 0.05in /  1.27mm 0.0 W/m2
22:01 67.5 °F /  19.7 °C 54.0 °F /  12.2 °C 29.64in /  1003.6hPa ESE 4.9mph /  7.9km/h 8.0mph /  12.9km/h 62% 0.05in /  1.27mm 0.0 W/m2
22:06 67.8 °F /  19.9 °C 51.6 °F /  10.9 °C 29.64in /  1003.6hPa Calm   6.0mph /  9.7km/h 56% 0.04in /  1.02mm 0.0 W/m2
22:11 68.2 °F /  20.1 °C 53.2 °F /  11.8 °C 29.64in /  1003.6hPa NE 0.9mph /  1.4km/h 6.0mph /  9.7km/h 59% 0.02in /  0.51mm 0.0 W/m2
22:16 68.2 °F /  20.1 °C 53.8 °F /  12.1 °C 29.65in /  1003.9hPa NE 4.0mph /  6.4km/h 6.0mph /  9.7km/h 60% 0.01in /  0.25mm 0.0 W/m2
22:21 68.5 °F /  20.3 °C 52.7 °F /  11.5 °C 29.65in /  1003.9hPa NNE 2.9mph /  4.7km/h 8.0mph /  12.9km/h 57% 0.00in /  0mm 0.0 W/m2
22:26 68.7 °F /  20.4 °C 52.9 °F /  11.6 °C 29.65in /  1003.9hPa ENE 2.0mph /  3.2km/h 7.0mph /  11.3km/h 57% 0.00in /  0mm 0.0 W/m2
22:31 69.3 °F /  20.7 °C 52.3 °F /  11.3 °C 29.66in /  1004.3hPa Calm   3.0mph /  4.8km/h 55% 0.00in /  0mm 0.0 W/m2
22:37 69.6 °F /  20.9 °C 51.8 °F /  11 °C 29.66in /  1004.3hPa Calm   5.0mph /  8km/h 53% 0.00in /  0mm 0.0 W/m2
22:38 69.6 °F /  20.9 °C 52.2 °F /  11.2 °C 29.66in /  1004.3hPa NE 2.9mph /  4.7km/h 4.0mph /  6.4km/h 54% 0.00in /  0mm 0.0 W/m2
22:40 70.0 °F /  21.1 °C 50.5 °F /  10.3 °C 29.66in /  1004.3hPa NNE 2.0mph /  3.2km/h 6.0mph /  9.7km/h 50% 0.00in /  0mm 0.0 W/m2
22:46 70.3 °F /  21.3 °C 50.9 °F /  10.5 °C 29.67in /  1004.6hPa ENE 0.9mph /  1.4km/h 1.0mph /  1.6km/h 50% 0.00in /  0mm 0.0 W/m2
22:51 70.7 °F /  21.5 °C 51.1 °F /  10.6 °C 29.67in /  1004.6hPa Calm   3.0mph /  4.8km/h 50% 0.00in /  0mm 0.0 W/m2
22:56 70.9 °F /  21.6 °C 51.8 °F /  11 °C 29.67in /  1004.6hPa Calm   3.0mph /  4.8km/h 51% 0.00in /  0mm 0.0 W/m2
23:01 70.9 °F /  21.6 °C 52.3 °F /  11.3 °C 29.67in /  1004.6hPa Calm   1.0mph /  1.6km/h 52% 0.00in /  0mm 0.0 W/m2
23:06 70.9 °F /  21.6 °C 52.9 °F /  11.6 °C 29.67in /  1004.6hPa NE 0.9mph /  1.4km/h 2.0mph /  3.2km/h 53% 0.00in /  0mm 0.0 W/m2
23:11 70.9 °F /  21.6 °C 54.0 °F /  12.2 °C 29.67in /  1004.6hPa ESE 2.0mph /  3.2km/h 2.0mph /  3.2km/h 55% 0.00in /  0mm 0.0 W/m2
23:16 70.5 °F /  21.4 °C 54.1 °F /  12.3 °C 29.67in /  1004.6hPa SE 2.0mph /  3.2km/h 3.0mph /  4.8km/h 56% 0.00in /  0mm 0.0 W/m2
23:20 70.5 °F /  21.4 °C 54.1 °F /  12.3 °C 29.67in /  1004.6hPa Calm   1.0mph /  1.6km/h 56% 0.00in /  0mm 0.0 W/m2
23:25 70.3 °F /  21.3 °C 54.9 °F /  12.7 °C 29.67in /  1004.6hPa NE 0.9mph /  1.4km/h 2.0mph /  3.2km/h 58% 0.00in /  0mm 0.0 W/m2
23:30 70.2 °F /  21.2 °C 55.2 °F /  12.9 °C 29.67in /  1004.6hPa Calm   3.0mph /  4.8km/h 59% 0.00in /  0mm 0.0 W/m2
23:35 70.0 °F /  21.1 °C 55.4 °F /  13 °C 29.67in /  1004.6hPa NE 2.9mph /  4.7km/h 3.0mph /  4.8km/h 60% 0.00in /  0mm 0.0 W/m2
23:41 70.0 °F /  21.1 °C 55.4 °F /  13 °C 29.67in /  1004.6hPa Calm   1.0mph /  1.6km/h 60% 0.00in /  0mm 0.0 W/m2
23:46 70.0 °F /  21.1 °C 55.9 °F /  13.3 °C 29.67in /  1004.6hPa Calm     61% 0.00in /  0mm 0.0 W/m2
23:51 69.6 °F /  20.9 °C 55.6 °F /  13.1 °C 29.67in /  1004.6hPa Calm     61% 0.00in /  0mm 0.0 W/m2
23:56 69.6 °F /  20.9 °C 56.5 °F /  13.6 °C 29.67in /  1004.6hPa Calm   1.0mph /  1.6km/h 63% 0.00in /  0mm 0.0 W/m2
Olympia, Windhoek, Namibia
Compliments of Weather Underground - 3.5 mb